Disclaimer

Please do not use the information listed here in-flight or in-navigation, as they are not provided to us by the airports but are provided by volunteers, so they might be outdated.

Search


Regions


Airport information page

Radio informations:
Common traffic adv. frequency (CTAF) - 122.8 MHz

Airport informations:
Latitude: 17° 28' 00.75" N
Longitude: 047° 07' 17.15" E
Elevation: 2363 feet - 720 meters
Operating hours: 24 hour operations
Operating agency: Military-civil joint use airport
Timezone: UTC+3
Fuel: Unknown fuel type or whether there is any fuel.

Runway information:
08/26 - 11975 x 147 feet< - >3650 x 45 meters

Recent METARs:
OESH 211600Z 06010KT CAVOK 26/07 Q1019 NOSIG
OESH 211600Z 06010KT CAVOK 26/07 Q1019 NOSIG
OESH 211700Z 05007KT CAVOK 25/08 Q1020 NOSIG

Airport on the map: